createdAt,value
2019-05-26T00:00:07.899Z,12.80
2019-05-26T00:02:36.958Z,12.70
2019-05-26T00:05:06.219Z,12.70
2019-05-26T00:07:35.230Z,12.70
2019-05-26T00:10:04.668Z,12.60
2019-05-26T00:12:33.773Z,12.60
2019-05-26T00:15:02.885Z,12.60
2019-05-26T00:17:31.912Z,12.60
2019-05-26T00:20:00.780Z,12.60
2019-05-26T00:22:29.728Z,12.50
2019-05-26T00:24:58.674Z,12.50
2019-05-26T00:27:27.630Z,12.50
2019-05-26T00:29:56.599Z,12.50
2019-05-26T00:32:25.621Z,12.50
2019-05-26T00:34:54.907Z,12.50
2019-05-26T00:37:23.947Z,12.50
2019-05-26T00:39:52.975Z,12.50
2019-05-26T00:42:22.005Z,12.40
2019-05-26T00:44:51.025Z,12.40
2019-05-26T00:47:20.081Z,12.40
2019-05-26T00:49:49.400Z,12.40
2019-05-26T00:52:18.457Z,12.50
2019-05-26T00:54:47.450Z,12.40
2019-05-26T00:57:16.669Z,12.40
2019-05-26T00:59:45.702Z,12.40
2019-05-26T01:02:14.698Z,12.40
2019-05-26T01:04:43.985Z,12.40
2019-05-26T01:07:12.915Z,12.40
2019-05-26T01:09:41.957Z,12.40
2019-05-26T01:12:11.043Z,12.40
2019-05-26T01:14:40.069Z,12.40
2019-05-26T01:17:09.099Z,12.40
2019-05-26T01:19:38.044Z,12.40
2019-05-26T01:22:07.056Z,12.30
2019-05-26T01:24:36.104Z,12.40
2019-05-26T01:27:05.134Z,12.30
2019-05-26T01:29:34.090Z,12.30
2019-05-26T01:32:03.046Z,12.30
2019-05-26T01:34:32.078Z,12.30
2019-05-26T01:37:01.293Z,12.30
2019-05-26T01:39:30.347Z,12.30
2019-05-26T01:41:59.205Z,12.40
2019-05-26T01:44:28.241Z,12.40
2019-05-26T01:46:57.265Z,12.40
2019-05-26T01:49:26.230Z,12.40
2019-05-26T01:51:55.347Z,12.40
2019-05-26T01:54:24.312Z,12.40
2019-05-26T01:56:53.338Z,12.40
2019-05-26T01:59:22.293Z,12.40
2019-05-26T02:01:51.317Z,12.40
2019-05-26T02:04:20.320Z,12.40
2019-05-26T02:06:49.256Z,12.40
2019-05-26T02:09:18.273Z,12.50
2019-05-26T02:11:47.557Z,12.40
2019-05-26T02:14:16.429Z,12.50
2019-05-26T02:16:45.500Z,12.50
2019-05-26T02:19:14.555Z,12.50
2019-05-26T02:21:43.557Z,12.50
2019-05-26T02:24:12.610Z,12.60
2019-05-26T02:26:41.620Z,12.60
2019-05-26T02:29:10.641Z,12.60
2019-05-26T02:31:39.926Z,12.60
2019-05-26T02:34:08.800Z,12.60
2019-05-26T02:36:37.697Z,12.60
2019-05-26T02:39:08.721Z,12.60
2019-05-26T02:41:37.829Z,12.70
2019-05-26T02:44:06.964Z,12.70
2019-05-26T02:46:35.969Z,12.70
2019-05-26T02:49:05.631Z,12.70
2019-05-26T02:51:34.651Z,12.80
2019-05-26T02:54:04.078Z,12.80
2019-05-26T02:56:33.660Z,12.90
2019-05-26T02:59:02.699Z,12.90
2019-05-26T03:01:33.403Z,12.90
2019-05-26T03:04:02.476Z,12.90
2019-05-26T03:06:33.670Z,12.90
2019-05-26T03:09:22.076Z,12.90
2019-05-26T03:11:37.221Z,13.00
2019-05-26T03:14:06.261Z,13.00
2019-05-26T03:16:38.382Z,13.00
2019-05-26T03:19:07.450Z,13.00
2019-05-26T03:21:36.480Z,13.00
2019-05-26T03:24:06.315Z,13.00
2019-05-26T03:26:35.326Z,13.00
2019-05-26T03:29:04.343Z,13.00
2019-05-26T03:31:33.313Z,13.00
2019-05-26T03:34:02.306Z,13.00
2019-05-26T03:36:31.336Z,13.00
2019-05-26T03:39:00.281Z,13.00
2019-05-26T03:41:29.256Z,13.00
2019-05-26T03:43:58.191Z,13.10
2019-05-26T03:46:27.111Z,13.10
2019-05-26T03:48:55.983Z,13.20
2019-05-26T03:51:24.956Z,13.20
2019-05-26T03:53:53.901Z,13.30
2019-05-26T03:56:22.951Z,13.30
2019-05-26T03:58:51.920Z,13.30
2019-05-26T04:01:20.982Z,13.30
2019-05-26T04:03:50.020Z,13.40
2019-05-26T04:06:18.985Z,13.40
2019-05-26T04:08:48.031Z,13.40
2019-05-26T04:11:17.049Z,13.50
2019-05-26T04:13:46.106Z,13.50
2019-05-26T04:16:15.142Z,13.50
2019-05-26T04:18:44.205Z,13.50
2019-05-26T04:21:13.495Z,13.60
2019-05-26T04:23:42.513Z,13.60
2019-05-26T04:26:11.820Z,13.60
2019-05-26T04:28:40.780Z,13.70
2019-05-26T04:31:09.804Z,13.70
2019-05-26T04:33:38.750Z,13.70
2019-05-26T04:36:07.783Z,13.80
2019-05-26T04:38:36.787Z,13.80
2019-05-26T04:41:05.830Z,13.90
2019-05-26T04:43:34.846Z,14.00
2019-05-26T04:46:04.040Z,14.00
2019-05-26T04:48:33.075Z,14.10
2019-05-26T04:51:02.092Z,14.10
2019-05-26T04:53:31.123Z,14.10
2019-05-26T04:56:00.135Z,14.20
2019-05-26T04:58:29.150Z,14.20
2019-05-26T05:00:58.005Z,14.20
2019-05-26T05:03:27.039Z,14.20
2019-05-26T05:05:56.000Z,14.20
2019-05-26T05:08:24.879Z,14.30
2019-05-26T05:10:53.803Z,14.30
2019-05-26T05:13:24.914Z,14.30
2019-05-26T05:15:53.523Z,14.40
2019-05-26T05:18:22.739Z,14.40
2019-05-26T05:20:51.743Z,14.50
2019-05-26T05:23:20.689Z,14.60
2019-05-26T05:25:49.695Z,14.60
2019-05-26T05:28:18.718Z,14.70
2019-05-26T05:30:47.772Z,14.70
2019-05-26T05:33:16.710Z,14.80
2019-05-26T05:35:45.568Z,14.90
2019-05-26T05:38:14.527Z,14.90
2019-05-26T05:40:58.329Z,14.90
2019-05-26T05:43:14.427Z,15.00
2019-05-26T05:45:43.293Z,15.00
2019-05-26T05:48:12.332Z,15.10
2019-05-26T05:50:41.276Z,15.20
2019-05-26T05:53:10.353Z,15.20
2019-05-26T05:55:39.327Z,15.30
2019-05-26T05:58:10.090Z,15.30
2019-05-26T06:00:39.163Z,15.30
2019-05-26T06:03:11.100Z,15.30
2019-05-26T06:05:40.113Z,15.40
2019-05-26T06:08:09.130Z,15.50
2019-05-26T06:10:38.392Z,15.60
2019-05-26T06:13:07.454Z,15.70
2019-05-26T06:15:36.606Z,15.80
2019-05-26T06:18:05.658Z,16.00
2019-05-26T06:20:35.156Z,16.10
2019-05-26T06:23:04.264Z,16.30
2019-05-26T06:25:34.430Z,16.50
2019-05-26T06:28:03.562Z,16.60
2019-05-26T06:30:32.573Z,16.80
2019-05-26T06:33:01.645Z,17.00
2019-05-26T06:35:32.745Z,17.30
2019-05-26T06:38:01.428Z,17.70
2019-05-26T06:40:31.797Z,18.00
2019-05-26T06:43:00.860Z,18.20
2019-05-26T06:45:29.970Z,18.40
2019-05-26T06:47:59.071Z,18.40
2019-05-26T06:50:28.171Z,18.30
2019-05-26T06:52:58.238Z,18.10
2019-05-26T06:55:27.352Z,18.10
2019-05-26T06:57:56.454Z,18.20
2019-05-26T07:00:25.641Z,18.90
2019-05-26T07:02:55.788Z,19.60
2019-05-26T07:05:25.167Z,20.70
2019-05-26T07:07:57.302Z,21.30
2019-05-26T07:10:26.574Z,21.30
2019-05-26T07:13:02.404Z,21.10
2019-05-26T07:15:34.831Z,20.80
2019-05-26T07:18:03.867Z,20.40
2019-05-26T07:20:32.890Z,20.30
2019-05-26T07:23:01.990Z,20.40
2019-05-26T07:25:31.278Z,20.30
2019-05-26T07:28:00.232Z,20.20
2019-05-26T07:30:29.442Z,20.20
2019-05-26T07:32:58.406Z,20.20
2019-05-26T07:35:27.400Z,20.00
2019-05-26T07:37:56.397Z,19.90
2019-05-26T07:40:25.525Z,19.90
2019-05-26T07:42:54.694Z,19.90
2019-05-26T07:45:24.082Z,19.90
2019-05-26T07:47:53.105Z,19.90
2019-05-26T07:50:22.322Z,20.00
2019-05-26T07:52:51.340Z,20.30
2019-05-26T07:55:20.340Z,20.40
2019-05-26T07:57:49.291Z,20.50
2019-05-26T08:00:18.534Z,20.70
2019-05-26T08:02:47.631Z,20.80
2019-05-26T08:05:16.855Z,20.90
2019-05-26T08:07:45.851Z,20.80
2019-05-26T08:10:15.327Z,20.90
2019-05-26T08:12:44.453Z,20.90
2019-05-26T08:15:14.103Z,21.10
2019-05-26T08:17:43.136Z,21.20
2019-05-26T08:20:13.537Z,21.30
2019-05-26T08:22:42.520Z,21.30
2019-05-26T08:25:12.234Z,21.40
2019-05-26T08:27:41.320Z,21.50
2019-05-26T08:30:10.716Z,21.80
2019-05-26T08:32:39.758Z,21.90
2019-05-26T08:35:09.560Z,22.20
2019-05-26T08:37:38.716Z,22.50
2019-05-26T08:40:20.070Z,22.90
2019-05-26T08:42:50.413Z,23.00
2019-05-26T08:45:22.350Z,23.10
2019-05-26T08:47:51.955Z,23.20
2019-05-26T08:50:21.877Z,23.10
2019-05-26T08:52:50.909Z,23.20
2019-05-26T08:55:21.264Z,23.20
2019-05-26T08:57:50.366Z,23.10
2019-05-26T09:00:19.608Z,23.40
2019-05-26T09:02:48.743Z,23.50
2019-05-26T09:05:18.411Z,23.70
2019-05-26T09:07:47.585Z,23.60
2019-05-26T09:10:17.064Z,23.50
2019-05-26T09:12:59.765Z,23.30
2019-05-26T09:15:17.091Z,23.40
2019-05-26T09:17:46.200Z,23.60
2019-05-26T09:20:17.656Z,23.60
2019-05-26T09:22:46.767Z,23.90
2019-05-26T09:25:16.242Z,23.70
2019-05-26T09:27:45.348Z,23.70
2019-05-26T09:30:14.552Z,23.60
2019-05-26T09:32:43.758Z,23.50
2019-05-26T09:35:13.876Z,23.50
2019-05-26T09:37:43.076Z,23.60
2019-05-26T09:40:12.370Z,23.60
2019-05-26T09:42:41.774Z,23.70
2019-05-26T09:45:12.151Z,23.50
2019-05-26T09:47:41.318Z,23.60
2019-05-26T09:50:12.211Z,23.80
2019-05-26T09:52:41.508Z,24.00
2019-05-26T09:55:11.347Z,24.10
2019-05-26T09:57:40.301Z,23.90
2019-05-26T10:00:10.008Z,23.90
2019-05-26T10:02:39.244Z,23.90
2019-05-26T10:05:08.735Z,23.90
2019-05-26T10:07:37.772Z,23.80
2019-05-26T10:10:07.176Z,23.80
2019-05-26T10:12:36.234Z,23.90
2019-05-26T10:15:05.690Z,24.10
2019-05-26T10:17:34.963Z,24.20
2019-05-26T10:20:04.626Z,24.10
2019-05-26T10:22:33.765Z,24.00
2019-05-26T10:25:02.867Z,23.70
2019-05-26T10:27:31.908Z,23.60
2019-05-26T10:30:01.014Z,23.60
2019-05-26T10:32:30.222Z,23.80
2019-05-26T10:34:59.244Z,24.00
2019-05-26T10:37:28.412Z,24.00
2019-05-26T10:39:57.330Z,24.20
2019-05-26T10:42:26.470Z,24.30
2019-05-26T10:44:55.610Z,24.40
2019-05-26T10:47:24.625Z,24.50
2019-05-26T10:49:53.646Z,24.80
2019-05-26T10:52:22.585Z,24.90
2019-05-26T10:54:51.479Z,24.90
2019-05-26T10:57:20.432Z,24.80
2019-05-26T10:59:49.353Z,24.90
2019-05-26T11:02:18.360Z,24.80
2019-05-26T11:04:47.236Z,24.80
2019-05-26T11:07:16.199Z,24.70
2019-05-26T11:09:45.346Z,24.60
2019-05-26T11:12:14.414Z,24.80
2019-05-26T11:14:43.453Z,24.70
2019-05-26T11:17:12.474Z,24.60
2019-05-26T11:19:41.539Z,24.50
2019-05-26T11:22:10.523Z,24.50
2019-05-26T11:24:39.521Z,24.50
2019-05-26T11:27:12.079Z,24.40
2019-05-26T11:29:39.437Z,24.40
2019-05-26T11:32:08.490Z,24.40
2019-05-26T11:34:37.459Z,24.30
2019-05-26T11:37:06.472Z,24.30
2019-05-26T11:39:35.794Z,24.30
2019-05-26T11:42:13.202Z,24.50
2019-05-26T11:44:36.556Z,24.60
2019-05-26T11:47:05.722Z,24.80
2019-05-26T11:49:34.782Z,25.00
2019-05-26T11:52:03.890Z,25.10
2019-05-26T11:54:34.606Z,25.10
2019-05-26T11:57:03.678Z,25.10
2019-05-26T11:59:32.710Z,25.10
2019-05-26T12:02:01.848Z,25.10
2019-05-26T12:04:30.959Z,25.20
2019-05-26T12:07:00.200Z,25.30
2019-05-26T12:09:29.218Z,25.40
2019-05-26T12:11:58.257Z,25.20
2019-05-26T12:14:34.704Z,24.90
2019-05-26T12:16:58.406Z,24.80
2019-05-26T12:19:28.363Z,24.80
2019-05-26T12:21:57.355Z,24.90
2019-05-26T12:24:26.462Z,25.00
2019-05-26T12:26:55.515Z,25.20
2019-05-26T12:29:24.534Z,25.10
2019-05-26T12:31:53.493Z,25.00
2019-05-26T12:34:22.585Z,25.00
2019-05-26T12:36:51.617Z,25.00
2019-05-26T12:39:20.566Z,25.00
2019-05-26T12:41:49.495Z,25.10
2019-05-26T12:44:18.516Z,25.10
2019-05-26T12:46:47.423Z,25.20
2019-05-26T12:49:16.508Z,25.40
2019-05-26T12:51:45.443Z,25.40
2019-05-26T12:54:14.305Z,25.40
2019-05-26T12:56:43.498Z,25.20
2019-05-26T12:59:12.540Z,25.10
2019-05-26T13:01:41.530Z,25.20
2019-05-26T13:04:10.586Z,25.20
2019-05-26T13:06:39.586Z,25.20
2019-05-26T13:09:11.003Z,25.30
2019-05-26T13:11:40.035Z,25.30
2019-05-26T13:14:09.059Z,25.30
2019-05-26T13:16:38.091Z,25.20
2019-05-26T13:19:07.142Z,25.30
2019-05-26T13:21:35.986Z,25.10
2019-05-26T13:24:05.417Z,25.00
2019-05-26T13:26:34.352Z,24.90
2019-05-26T13:29:03.340Z,24.80
2019-05-26T13:31:32.210Z,24.90
2019-05-26T13:34:01.205Z,24.90
2019-05-26T13:36:30.132Z,24.80
2019-05-26T13:38:59.147Z,24.70
2019-05-26T13:41:28.214Z,24.40
2019-05-26T13:43:57.232Z,24.30
2019-05-26T13:46:26.181Z,24.30
2019-05-26T13:48:55.183Z,24.40
2019-05-26T13:51:24.302Z,24.40
2019-05-26T13:53:53.193Z,24.50
2019-05-26T13:56:22.339Z,24.50
2019-05-26T13:58:51.365Z,24.50
2019-05-26T14:01:20.405Z,24.80
2019-05-26T14:03:49.440Z,25.10
2019-05-26T14:06:18.618Z,25.20
2019-05-26T14:08:47.654Z,25.40
2019-05-26T14:11:16.606Z,25.40
2019-05-26T14:13:45.586Z,25.40
2019-05-26T14:30:58.256Z,24.50
2019-05-26T14:33:27.297Z,24.40
2019-05-26T14:35:56.381Z,24.40
2019-05-26T14:38:25.406Z,24.40
2019-05-26T14:40:54.327Z,24.40
2019-05-26T14:43:23.352Z,24.70
2019-05-26T14:45:53.854Z,24.90
2019-05-26T14:48:23.220Z,24.90
2019-05-26T14:50:52.165Z,24.70
2019-05-26T14:53:21.118Z,24.60
2019-05-26T14:55:50.080Z,24.60
2019-05-26T14:58:19.240Z,24.50
2019-05-26T15:00:48.267Z,24.50
2019-05-26T15:03:17.295Z,24.50
2019-05-26T15:05:46.341Z,24.40
2019-05-26T15:08:15.453Z,24.40
2019-05-26T15:10:44.407Z,24.40
2019-05-26T15:13:13.443Z,24.40
2019-05-26T15:15:42.479Z,24.40
2019-05-26T15:18:11.480Z,24.40
2019-05-26T15:20:40.548Z,24.30
2019-05-26T15:23:09.562Z,24.10
2019-05-26T15:25:38.622Z,24.10
2019-05-26T15:28:07.585Z,24.20
2019-05-26T15:30:36.575Z,24.30
2019-05-26T15:33:05.699Z,24.30
2019-05-26T15:35:34.803Z,24.10
2019-05-26T15:38:03.910Z,24.20
2019-05-26T15:40:32.977Z,24.40
2019-05-26T15:43:02.060Z,24.40
2019-05-26T15:45:31.106Z,24.60
2019-05-26T15:47:59.994Z,24.60
2019-05-26T15:50:29.020Z,24.40
2019-05-26T15:52:58.048Z,24.40
2019-05-26T15:55:27.153Z,24.30
2019-05-26T15:57:56.137Z,24.60
2019-05-26T16:00:25.360Z,24.80
2019-05-26T16:02:54.377Z,24.90
2019-05-26T16:05:23.396Z,24.80
2019-05-26T16:07:52.275Z,24.70
2019-05-26T16:10:21.491Z,24.60
2019-05-26T16:12:50.439Z,24.50
2019-05-26T16:15:19.601Z,24.60
2019-05-26T16:17:48.586Z,24.80
2019-05-26T16:20:17.972Z,25.00
2019-05-26T16:22:47.016Z,25.00
2019-05-26T16:25:16.165Z,25.00
2019-05-26T16:27:45.181Z,25.00
2019-05-26T16:30:14.543Z,24.80
2019-05-26T16:32:43.565Z,24.80
2019-05-26T16:35:12.717Z,24.90
2019-05-26T16:37:41.738Z,25.00
2019-05-26T16:40:10.851Z,24.90
2019-05-26T16:42:39.885Z,24.70
2019-05-26T16:45:09.622Z,24.30
2019-05-26T16:47:38.746Z,24.00
2019-05-26T16:50:08.263Z,23.80
2019-05-26T16:52:37.285Z,23.50
2019-05-26T16:55:07.022Z,23.20
2019-05-26T16:57:35.998Z,23.00
2019-05-26T17:00:05.986Z,23.00
2019-05-26T17:02:35.288Z,22.90
2019-05-26T17:05:05.071Z,22.80
2019-05-26T17:07:34.106Z,22.70
2019-05-26T17:10:03.556Z,22.70
2019-05-26T17:12:32.879Z,22.70
2019-05-26T17:15:04.564Z,22.60
2019-05-26T17:17:33.497Z,22.50
2019-05-26T17:20:02.527Z,22.40
2019-05-26T17:22:31.463Z,22.30
2019-05-26T17:25:00.518Z,22.30
2019-05-26T17:27:29.514Z,22.30
2019-05-26T17:29:58.481Z,22.20
2019-05-26T17:32:27.510Z,22.10
2019-05-26T17:34:56.546Z,22.00
2019-05-26T17:37:25.507Z,22.00
2019-05-26T17:39:54.663Z,22.00
2019-05-26T17:42:23.671Z,21.90
2019-05-26T17:44:52.537Z,21.70
2019-05-26T17:47:29.706Z,21.60
2019-05-26T17:49:52.206Z,21.50
2019-05-26T17:52:21.350Z,21.40
2019-05-26T17:54:50.308Z,21.40
2019-05-26T17:57:19.412Z,21.30
2019-05-26T17:59:48.340Z,21.30
2019-05-26T18:02:17.382Z,21.20
2019-05-26T18:04:46.409Z,21.10
2019-05-26T18:07:15.414Z,20.90
2019-05-26T18:09:44.802Z,20.80
2019-05-26T18:12:14.282Z,20.70
2019-05-26T18:14:43.486Z,20.60
2019-05-26T18:17:12.492Z,20.50
2019-05-26T18:19:41.369Z,20.40
2019-05-26T18:22:10.518Z,20.40
2019-05-26T18:24:39.620Z,20.20
2019-05-26T18:27:08.658Z,20.10
2019-05-26T18:29:37.825Z,20.00
2019-05-26T18:32:07.282Z,19.90
2019-05-26T18:34:36.379Z,19.80
2019-05-26T18:37:05.599Z,19.80
2019-05-26T18:39:34.653Z,19.70
2019-05-26T18:42:03.881Z,19.70
2019-05-26T18:44:32.948Z,19.70
2019-05-26T18:47:01.985Z,19.70
2019-05-26T18:49:31.089Z,19.60
2019-05-26T18:52:00.110Z,19.60
2019-05-26T18:54:29.090Z,19.60
2019-05-26T18:56:58.070Z,19.50
2019-05-26T18:59:27.038Z,19.40
2019-05-26T19:01:56.049Z,19.40
2019-05-26T19:04:24.983Z,19.40
2019-05-26T19:06:54.128Z,19.30
2019-05-26T19:09:23.211Z,19.30
2019-05-26T19:11:52.223Z,19.20
2019-05-26T19:14:21.180Z,19.10
2019-05-26T19:16:50.158Z,19.00
2019-05-26T19:19:19.367Z,18.90
2019-05-26T19:21:48.330Z,18.80
2019-05-26T19:24:17.466Z,18.70
2019-05-26T19:26:46.520Z,18.60
2019-05-26T19:29:15.522Z,18.50
2019-05-26T19:31:44.483Z,18.40
2019-05-26T19:34:13.478Z,18.40
2019-05-26T19:36:42.852Z,18.40
2019-05-26T19:39:13.003Z,18.30
2019-05-26T19:41:42.021Z,18.20
2019-05-26T19:44:11.131Z,18.20
2019-05-26T19:46:40.138Z,18.10
2019-05-26T19:49:09.172Z,18.10
2019-05-26T19:51:38.138Z,18.00
2019-05-26T19:54:07.154Z,18.00
2019-05-26T19:56:36.073Z,18.00
2019-05-26T19:59:05.733Z,17.90
2019-05-26T20:01:34.810Z,17.90
2019-05-26T20:04:03.843Z,17.80
2019-05-26T20:06:32.864Z,17.80
2019-05-26T20:09:02.044Z,17.60
2019-05-26T20:11:31.541Z,17.50
2019-05-26T20:14:00.536Z,17.40
2019-05-26T20:16:30.883Z,17.30
2019-05-26T20:19:00.302Z,17.20
2019-05-26T20:21:29.324Z,17.10
2019-05-26T20:23:58.360Z,17.00
2019-05-26T20:26:27.318Z,17.00
2019-05-26T20:28:56.343Z,16.90
2019-05-26T20:31:25.570Z,16.80
2019-05-26T20:33:54.605Z,16.80
2019-05-26T20:36:23.614Z,16.70
2019-05-26T20:38:52.738Z,16.70
2019-05-26T20:41:21.666Z,16.70
2019-05-26T20:43:50.611Z,16.70
2019-05-26T20:46:19.538Z,16.70
2019-05-26T20:48:48.479Z,16.70
2019-05-26T20:51:17.495Z,16.70
2019-05-26T20:53:46.905Z,16.60
2019-05-26T20:56:15.920Z,16.60
2019-05-26T20:58:44.866Z,16.60
2019-05-26T21:01:13.955Z,16.60
2019-05-26T21:03:42.989Z,16.60
2019-05-26T21:06:11.995Z,16.60
2019-05-26T21:08:40.872Z,16.60
2019-05-26T21:11:09.712Z,16.60
2019-05-26T21:13:38.771Z,16.60
2019-05-26T21:16:07.802Z,16.60
2019-05-26T21:18:36.852Z,16.60
2019-05-26T21:21:05.860Z,16.70
2019-05-26T21:23:34.814Z,16.50
2019-05-26T21:26:03.822Z,16.50
2019-05-26T21:28:32.679Z,16.50
2019-05-26T21:31:01.555Z,16.50
2019-05-26T21:33:32.071Z,16.50
2019-05-26T21:36:01.007Z,16.50
2019-05-26T21:38:30.066Z,16.50
2019-05-26T21:40:59.233Z,16.50
2019-05-26T21:43:28.294Z,16.50
2019-05-26T21:45:57.224Z,16.50
2019-05-26T21:48:26.217Z,16.50
2019-05-26T21:50:55.217Z,16.50
2019-05-26T21:53:24.100Z,16.50
2019-05-26T21:55:53.295Z,16.50
2019-05-26T21:58:22.252Z,16.50
2019-05-26T22:00:51.278Z,16.50
2019-05-26T22:03:20.294Z,16.50
2019-05-26T22:05:49.335Z,16.50
2019-05-26T22:08:18.365Z,16.50
2019-05-26T22:10:47.470Z,16.50
2019-05-26T22:13:16.417Z,16.50
2019-05-26T22:15:45.422Z,16.50
2019-05-26T22:18:14.460Z,16.80
2019-05-26T22:20:43.485Z,16.70
2019-05-26T22:23:12.503Z,16.60
2019-05-26T22:25:41.715Z,16.50
2019-05-26T22:28:10.794Z,16.50
2019-05-26T22:30:39.753Z,16.50
2019-05-26T22:33:08.765Z,16.50
2019-05-26T22:35:37.737Z,16.50
2019-05-26T22:38:06.688Z,16.40
2019-05-26T22:40:35.714Z,16.30
2019-05-26T22:43:05.164Z,16.30
2019-05-26T22:45:34.093Z,16.30
2019-05-26T22:48:03.022Z,16.20
2019-05-26T22:50:31.970Z,16.20
2019-05-26T22:53:01.699Z,16.20
2019-05-26T22:55:30.703Z,16.20
2019-05-26T22:57:59.582Z,16.20
2019-05-26T23:00:28.810Z,16.20
2019-05-26T23:02:58.185Z,16.20
2019-05-26T23:05:27.216Z,16.10
2019-05-26T23:07:56.145Z,16.00
2019-05-26T23:10:25.081Z,15.90
2019-05-26T23:12:54.044Z,15.90
2019-05-26T23:15:23.041Z,15.90
2019-05-26T23:17:52.086Z,15.90
2019-05-26T23:20:21.106Z,15.80
2019-05-26T23:22:50.040Z,15.80
2019-05-26T23:25:19.035Z,15.80
2019-05-26T23:27:48.051Z,15.80
2019-05-26T23:30:17.589Z,15.70
2019-05-26T23:32:46.588Z,15.70
2019-05-26T23:35:17.042Z,15.70
2019-05-26T23:37:45.914Z,15.70
2019-05-26T23:40:15.299Z,15.70
2019-05-26T23:42:44.260Z,15.60
2019-05-26T23:45:13.787Z,15.60
2019-05-26T23:47:42.810Z,15.50
2019-05-26T23:50:12.018Z,15.50
2019-05-26T23:52:40.904Z,15.50
2019-05-26T23:55:11.303Z,15.50
2019-05-26T23:57:40.318Z,15.50
